sensor_id;sensor_type;location;lat;lon;timestamp;P1;durP1;ratioP1;P2;durP2;ratioP2
36747;SDS011;22716;51.556;5.080;2023-02-15T00:00:32;52.43;;;29.47;;
36747;SDS011;22716;51.556;5.080;2023-02-15T00:03:00;48.40;;;30.13;;
36747;SDS011;22716;51.556;5.080;2023-02-15T00:05:30;46.77;;;28.10;;
36747;SDS011;22716;51.556;5.080;2023-02-15T00:07:59;50.47;;;29.20;;
36747;SDS011;22716;51.556;5.080;2023-02-15T00:10:27;50.80;;;28.77;;
36747;SDS011;22716;51.556;5.080;2023-02-15T00:12:56;50.93;;;29.00;;
36747;SDS011;22716;51.556;5.080;2023-02-15T00:15:28;53.00;;;29.00;;
36747;SDS011;22716;51.556;5.080;2023-02-15T00:17:56;54.50;;;29.60;;
36747;SDS011;22716;51.556;5.080;2023-02-15T00:20:25;51.43;;;29.33;;
36747;SDS011;22716;51.556;5.080;2023-02-15T00:22:54;54.20;;;30.20;;
36747;SDS011;22716;51.556;5.080;2023-02-15T00:25:23;46.27;;;26.80;;
36747;SDS011;22716;51.556;5.080;2023-02-15T00:27:52;46.70;;;27.77;;
36747;SDS011;22716;51.556;5.080;2023-02-15T00:30:20;45.87;;;28.03;;
36747;SDS011;22716;51.556;5.080;2023-02-15T00:32:52;46.33;;;26.97;;
36747;SDS011;22716;51.556;5.080;2023-02-15T00:35:20;54.20;;;28.17;;
36747;SDS011;22716;51.556;5.080;2023-02-15T00:37:49;43.60;;;26.80;;
36747;SDS011;22716;51.556;5.080;2023-02-15T00:40:18;51.60;;;28.20;;
36747;SDS011;22716;51.556;5.080;2023-02-15T00:42:47;45.57;;;27.00;;
36747;SDS011;22716;51.556;5.080;2023-02-15T00:45:16;45.10;;;26.63;;
36747;SDS011;22716;51.556;5.080;2023-02-15T00:47:46;42.17;;;27.30;;
36747;SDS011;22716;51.556;5.080;2023-02-15T00:50:18;43.07;;;25.33;;
36747;SDS011;22716;51.556;5.080;2023-02-15T00:52:46;45.60;;;27.00;;
36747;SDS011;22716;51.556;5.080;2023-02-15T00:55:15;45.60;;;26.10;;
36747;SDS011;22716;51.556;5.080;2023-02-15T00:57:44;48.53;;;27.63;;
36747;SDS011;22716;51.556;5.080;2023-02-15T01:00:14;45.70;;;27.20;;
36747;SDS011;22716;51.556;5.080;2023-02-15T01:02:42;40.50;;;25.97;;
36747;SDS011;22716;51.556;5.080;2023-02-15T01:05:11;43.93;;;26.57;;
36747;SDS011;22716;51.556;5.080;2023-02-15T01:07:43;41.73;;;26.40;;
36747;SDS011;22716;51.556;5.080;2023-02-15T01:10:11;48.70;;;27.50;;
36747;SDS011;22716;51.556;5.080;2023-02-15T01:12:40;43.43;;;26.17;;
36747;SDS011;22716;51.556;5.080;2023-02-15T01:15:09;42.17;;;27.93;;
36747;SDS011;22716;51.556;5.080;2023-02-15T01:17:38;42.97;;;25.33;;
36747;SDS011;22716;51.556;5.080;2023-02-15T01:20:08;46.30;;;27.70;;
36747;SDS011;22716;51.556;5.080;2023-02-15T01:22:38;47.77;;;29.33;;
36747;SDS011;22716;51.556;5.080;2023-02-15T01:25:09;43.33;;;25.83;;
36747;SDS011;22716;51.556;5.080;2023-02-15T01:27:38;50.97;;;27.70;;
36747;SDS011;22716;51.556;5.080;2023-02-15T01:30:08;47.70;;;28.33;;
36747;SDS011;22716;51.556;5.080;2023-02-15T01:32:38;44.57;;;27.57;;
36747;SDS011;22716;51.556;5.080;2023-02-15T01:35:07;46.50;;;27.93;;
36747;SDS011;22716;51.556;5.080;2023-02-15T01:37:36;47.87;;;26.13;;
36747;SDS011;22716;51.556;5.080;2023-02-15T01:40:11;42.63;;;26.10;;
36747;SDS011;22716;51.556;5.080;2023-02-15T01:42:42;47.23;;;28.30;;
36747;SDS011;22716;51.556;5.080;2023-02-15T01:45:16;42.50;;;25.93;;
36747;SDS011;22716;51.556;5.080;2023-02-15T01:47:50;53.80;;;28.07;;
36747;SDS011;22716;51.556;5.080;2023-02-15T01:50:25;45.97;;;27.00;;
36747;SDS011;22716;51.556;5.080;2023-02-15T01:53:02;48.43;;;26.90;;
36747;SDS011;22716;51.556;5.080;2023-02-15T01:55:40;48.90;;;26.33;;
36747;SDS011;22716;51.556;5.080;2023-02-15T01:58:13;47.10;;;28.47;;
36747;SDS011;22716;51.556;5.080;2023-02-15T02:00:43;42.13;;;27.13;;
36747;SDS011;22716;51.556;5.080;2023-02-15T02:03:12;44.10;;;25.70;;
36747;SDS011;22716;51.556;5.080;2023-02-15T02:05:43;45.50;;;26.23;;
36747;SDS011;22716;51.556;5.080;2023-02-15T02:08:12;51.83;;;27.00;;
36747;SDS011;22716;51.556;5.080;2023-02-15T02:10:43;45.73;;;26.30;;
36747;SDS011;22716;51.556;5.080;2023-02-15T02:13:12;42.07;;;25.27;;
36747;SDS011;22716;51.556;5.080;2023-02-15T02:15:44;40.00;;;25.57;;
36747;SDS011;22716;51.556;5.080;2023-02-15T02:18:21;45.80;;;27.07;;
36747;SDS011;22716;51.556;5.080;2023-02-15T02:24:14;41.60;;;25.20;;
36747;SDS011;22716;51.556;5.080;2023-02-15T02:27:12;38.83;;;24.43;;
36747;SDS011;22716;51.556;5.080;2023-02-15T02:30:04;47.00;;;26.47;;
36747;SDS011;22716;51.556;5.080;2023-02-15T02:35:57;40.97;;;25.90;;
36747;SDS011;22716;51.556;5.080;2023-02-15T02:38:37;44.73;;;26.30;;
36747;SDS011;22716;51.556;5.080;2023-02-15T02:41:17;40.00;;;24.30;;
36747;SDS011;22716;51.556;5.080;2023-02-15T02:43:53;42.17;;;24.43;;
36747;SDS011;22716;51.556;5.080;2023-02-15T02:46:30;41.20;;;25.20;;
36747;SDS011;22716;51.556;5.080;2023-02-15T02:49:07;41.30;;;24.73;;
36747;SDS011;22716;51.556;5.080;2023-02-15T02:51:36;43.73;;;26.80;;
36747;SDS011;22716;51.556;5.080;2023-02-15T02:54:05;42.93;;;26.40;;
36747;SDS011;22716;51.556;5.080;2023-02-15T02:56:36;40.10;;;25.67;;
36747;SDS011;22716;51.556;5.080;2023-02-15T02:59:09;38.80;;;24.77;;
36747;SDS011;22716;51.556;5.080;2023-02-15T03:01:42;44.60;;;25.00;;
36747;SDS011;22716;51.556;5.080;2023-02-15T03:04:18;42.73;;;25.03;;
36747;SDS011;22716;51.556;5.080;2023-02-15T03:06:50;38.87;;;24.33;;
36747;SDS011;22716;51.556;5.080;2023-02-15T03:09:24;43.37;;;24.97;;
36747;SDS011;22716;51.556;5.080;2023-02-15T03:12:00;41.47;;;24.27;;
36747;SDS011;22716;51.556;5.080;2023-02-15T03:14:30;41.37;;;25.70;;
36747;SDS011;22716;51.556;5.080;2023-02-15T03:16:59;41.97;;;24.57;;
36747;SDS011;22716;51.556;5.080;2023-02-15T03:19:33;43.00;;;26.37;;
36747;SDS011;22716;51.556;5.080;2023-02-15T03:22:04;44.92;;;24.48;;
36747;SDS011;22716;51.556;5.080;2023-02-15T03:24:37;41.97;;;25.57;;
36747;SDS011;22716;51.556;5.080;2023-02-15T03:27:10;44.43;;;25.83;;
36747;SDS011;22716;51.556;5.080;2023-02-15T03:29:44;44.53;;;24.20;;
36747;SDS011;22716;51.556;5.080;2023-02-15T03:32:16;41.80;;;25.37;;
36747;SDS011;22716;51.556;5.080;2023-02-15T03:34:48;45.97;;;27.20;;
36747;SDS011;22716;51.556;5.080;2023-02-15T03:37:18;41.00;;;26.33;;
36747;SDS011;22716;51.556;5.080;2023-02-15T03:39:53;43.93;;;23.67;;
36747;SDS011;22716;51.556;5.080;2023-02-15T03:42:45;49.67;;;26.03;;
36747;SDS011;22716;51.556;5.080;2023-02-15T03:45:20;43.07;;;25.23;;
36747;SDS011;22716;51.556;5.080;2023-02-15T03:47:53;38.07;;;23.43;;
36747;SDS011;22716;51.556;5.080;2023-02-15T03:50:28;46.77;;;26.30;;
36747;SDS011;22716;51.556;5.080;2023-02-15T03:53:13;46.23;;;24.73;;
36747;SDS011;22716;51.556;5.080;2023-02-15T03:55:46;38.53;;;24.90;;
36747;SDS011;22716;51.556;5.080;2023-02-15T03:58:15;41.73;;;24.17;;
36747;SDS011;22716;51.556;5.080;2023-02-15T04:01:10;42.87;;;25.40;;
36747;SDS011;22716;51.556;5.080;2023-02-15T04:04:00;45.53;;;25.23;;
36747;SDS011;22716;51.556;5.080;2023-02-15T04:06:36;42.93;;;24.20;;
36747;SDS011;22716;51.556;5.080;2023-02-15T04:09:05;48.27;;;26.17;;
36747;SDS011;22716;51.556;5.080;2023-02-15T04:11:46;42.97;;;24.77;;
36747;SDS011;22716;51.556;5.080;2023-02-15T04:14:15;37.53;;;24.30;;
36747;SDS011;22716;51.556;5.080;2023-02-15T04:16:57;47.90;;;25.40;;
36747;SDS011;22716;51.556;5.080;2023-02-15T04:19:25;41.90;;;24.53;;
36747;SDS011;22716;51.556;5.080;2023-02-15T04:22:10;46.53;;;25.70;;
36747;SDS011;22716;51.556;5.080;2023-02-15T04:24:51;42.87;;;25.47;;
36747;SDS011;22716;51.556;5.080;2023-02-15T04:27:32;44.93;;;24.43;;
36747;SDS011;22716;51.556;5.080;2023-02-15T04:30:02;42.13;;;22.73;;
36747;SDS011;22716;51.556;5.080;2023-02-15T04:32:31;41.00;;;25.47;;
36747;SDS011;22716;51.556;5.080;2023-02-15T04:35:00;40.40;;;24.57;;
36747;SDS011;22716;51.556;5.080;2023-02-15T04:37:33;39.07;;;24.60;;
36747;SDS011;22716;51.556;5.080;2023-02-15T04:40:02;40.63;;;22.97;;
36747;SDS011;22716;51.556;5.080;2023-02-15T04:42:31;42.63;;;22.87;;
36747;SDS011;22716;51.556;5.080;2023-02-15T04:45:00;41.43;;;23.33;;
36747;SDS011;22716;51.556;5.080;2023-02-15T04:47:29;41.90;;;24.47;;
36747;SDS011;22716;51.556;5.080;2023-02-15T04:49:58;40.07;;;23.77;;
36747;SDS011;22716;51.556;5.080;2023-02-15T04:52:27;46.80;;;25.20;;
36747;SDS011;22716;51.556;5.080;2023-02-15T04:54:59;35.40;;;22.30;;
36747;SDS011;22716;51.556;5.080;2023-02-15T04:57:28;39.57;;;22.87;;
36747;SDS011;22716;51.556;5.080;2023-02-15T04:59:56;42.63;;;23.90;;
36747;SDS011;22716;51.556;5.080;2023-02-15T05:02:26;41.60;;;22.53;;
36747;SDS011;22716;51.556;5.080;2023-02-15T05:04:55;34.97;;;23.43;;
36747;SDS011;22716;51.556;5.080;2023-02-15T05:07:24;46.90;;;24.83;;
36747;SDS011;22716;51.556;5.080;2023-02-15T05:09:52;43.63;;;23.50;;
36747;SDS011;22716;51.556;5.080;2023-02-15T05:12:24;35.03;;;21.90;;
36747;SDS011;22716;51.556;5.080;2023-02-15T05:14:53;40.20;;;23.87;;
36747;SDS011;22716;51.556;5.080;2023-02-15T05:17:22;35.53;;;23.17;;
36747;SDS011;22716;51.556;5.080;2023-02-15T05:19:50;35.50;;;22.13;;
36747;SDS011;22716;51.556;5.080;2023-02-15T05:22:19;35.07;;;21.13;;
36747;SDS011;22716;51.556;5.080;2023-02-15T05:24:48;35.10;;;21.63;;
36747;SDS011;22716;51.556;5.080;2023-02-15T05:27:32;34.17;;;20.00;;
36747;SDS011;22716;51.556;5.080;2023-02-15T05:30:14;35.40;;;21.97;;
36747;SDS011;22716;51.556;5.080;2023-02-15T05:32:42;36.97;;;21.83;;
36747;SDS011;22716;51.556;5.080;2023-02-15T05:35:12;33.60;;;21.33;;
36747;SDS011;22716;51.556;5.080;2023-02-15T05:37:42;34.93;;;20.47;;
36747;SDS011;22716;51.556;5.080;2023-02-15T05:40:12;39.57;;;22.27;;
36747;SDS011;22716;51.556;5.080;2023-02-15T05:42:43;38.43;;;22.17;;
36747;SDS011;22716;51.556;5.080;2023-02-15T05:45:12;37.50;;;22.07;;
36747;SDS011;22716;51.556;5.080;2023-02-15T05:47:40;38.47;;;23.03;;
36747;SDS011;22716;51.556;5.080;2023-02-15T05:50:10;40.17;;;23.17;;
36747;SDS011;22716;51.556;5.080;2023-02-15T05:52:39;38.50;;;21.83;;
36747;SDS011;22716;51.556;5.080;2023-02-15T05:55:08;39.13;;;21.07;;
36747;SDS011;22716;51.556;5.080;2023-02-15T05:57:37;35.40;;;22.53;;
36747;SDS011;22716;51.556;5.080;2023-02-15T06:00:10;38.40;;;21.10;;
36747;SDS011;22716;51.556;5.080;2023-02-15T06:02:40;34.08;;;20.45;;
36747;SDS011;22716;51.556;5.080;2023-02-15T06:05:09;40.87;;;21.33;;
36747;SDS011;22716;51.556;5.080;2023-02-15T06:07:38;32.73;;;22.60;;
36747;SDS011;22716;51.556;5.080;2023-02-15T06:10:07;35.07;;;20.23;;
36747;SDS011;22716;51.556;5.080;2023-02-15T06:12:36;37.23;;;22.33;;
36747;SDS011;22716;51.556;5.080;2023-02-15T06:15:05;39.63;;;23.03;;
36747;SDS011;22716;51.556;5.080;2023-02-15T06:17:37;38.83;;;23.00;;
36747;SDS011;22716;51.556;5.080;2023-02-15T06:20:09;40.30;;;21.20;;
36747;SDS011;22716;51.556;5.080;2023-02-15T06:22:38;35.73;;;20.97;;
36747;SDS011;22716;51.556;5.080;2023-02-15T06:25:07;37.37;;;21.73;;
36747;SDS011;22716;51.556;5.080;2023-02-15T06:27:37;40.80;;;22.43;;
36747;SDS011;22716;51.556;5.080;2023-02-15T06:30:07;36.77;;;21.80;;
36747;SDS011;22716;51.556;5.080;2023-02-15T06:32:39;35.55;;;20.80;;
36747;SDS011;22716;51.556;5.080;2023-02-15T06:35:08;41.83;;;21.23;;
36747;SDS011;22716;51.556;5.080;2023-02-15T06:37:37;43.67;;;23.30;;
36747;SDS011;22716;51.556;5.080;2023-02-15T06:40:07;39.83;;;22.90;;
36747;SDS011;22716;51.556;5.080;2023-02-15T06:42:37;37.83;;;22.00;;
36747;SDS011;22716;51.556;5.080;2023-02-15T06:45:06;37.47;;;21.47;;
36747;SDS011;22716;51.556;5.080;2023-02-15T06:47:38;38.83;;;23.97;;
36747;SDS011;22716;51.556;5.080;2023-02-15T06:50:08;39.30;;;21.63;;
36747;SDS011;22716;51.556;5.080;2023-02-15T06:52:38;38.30;;;21.00;;
36747;SDS011;22716;51.556;5.080;2023-02-15T06:55:07;37.37;;;21.43;;
36747;SDS011;22716;51.556;5.080;2023-02-15T06:57:35;40.57;;;21.27;;
36747;SDS011;22716;51.556;5.080;2023-02-15T07:00:05;34.17;;;20.60;;
36747;SDS011;22716;51.556;5.080;2023-02-15T07:02:38;41.43;;;21.37;;
36747;SDS011;22716;51.556;5.080;2023-02-15T07:05:07;33.30;;;19.87;;
36747;SDS011;22716;51.556;5.080;2023-02-15T07:07:36;33.83;;;20.40;;
36747;SDS011;22716;51.556;5.080;2023-02-15T07:10:05;39.80;;;24.10;;
36747;SDS011;22716;51.556;5.080;2023-02-15T07:12:35;41.53;;;22.97;;
36747;SDS011;22716;51.556;5.080;2023-02-15T07:15:08;38.03;;;22.23;;
36747;SDS011;22716;51.556;5.080;2023-02-15T07:17:39;36.10;;;21.00;;
36747;SDS011;22716;51.556;5.080;2023-02-15T07:20:09;33.87;;;20.43;;
36747;SDS011;22716;51.556;5.080;2023-02-15T07:22:40;33.70;;;19.63;;
36747;SDS011;22716;51.556;5.080;2023-02-15T07:25:09;42.47;;;21.23;;
36747;SDS011;22716;51.556;5.080;2023-02-15T07:27:40;40.53;;;21.13;;
36747;SDS011;22716;51.556;5.080;2023-02-15T07:30:11;36.07;;;20.17;;
36747;SDS011;22716;51.556;5.080;2023-02-15T07:32:45;37.30;;;21.67;;
36747;SDS011;22716;51.556;5.080;2023-02-15T07:35:26;37.90;;;20.03;;
36747;SDS011;22716;51.556;5.080;2023-02-15T07:37:55;34.93;;;21.37;;
36747;SDS011;22716;51.556;5.080;2023-02-15T07:40:24;34.17;;;20.73;;
36747;SDS011;22716;51.556;5.080;2023-02-15T07:42:53;40.57;;;22.30;;
36747;SDS011;22716;51.556;5.080;2023-02-15T07:45:21;43.20;;;22.40;;
36747;SDS011;22716;51.556;5.080;2023-02-15T07:47:53;33.70;;;21.20;;
36747;SDS011;22716;51.556;5.080;2023-02-15T07:50:22;38.33;;;22.33;;
36747;SDS011;22716;51.556;5.080;2023-02-15T07:52:51;38.03;;;20.47;;
36747;SDS011;22716;51.556;5.080;2023-02-15T07:55:20;32.50;;;20.10;;
36747;SDS011;22716;51.556;5.080;2023-02-15T07:57:50;33.40;;;20.33;;
36747;SDS011;22716;51.556;5.080;2023-02-15T08:00:20;36.90;;;20.73;;
36747;SDS011;22716;51.556;5.080;2023-02-15T08:02:54;41.03;;;21.40;;
36747;SDS011;22716;51.556;5.080;2023-02-15T08:05:36;34.70;;;19.53;;
36747;SDS011;22716;51.556;5.080;2023-02-15T08:08:06;35.70;;;20.30;;
36747;SDS011;22716;51.556;5.080;2023-02-15T08:10:57;37.53;;;20.70;;
36747;SDS011;22716;51.556;5.080;2023-02-15T08:13:42;40.17;;;22.23;;
36747;SDS011;22716;51.556;5.080;2023-02-15T08:16:19;37.13;;;22.77;;
36747;SDS011;22716;51.556;5.080;2023-02-15T08:18:52;38.73;;;22.00;;
36747;SDS011;22716;51.556;5.080;2023-02-15T08:21:22;41.30;;;21.43;;
36747;SDS011;22716;51.556;5.080;2023-02-15T08:23:53;32.53;;;20.80;;
36747;SDS011;22716;51.556;5.080;2023-02-15T08:26:22;38.33;;;21.67;;
36747;SDS011;22716;51.556;5.080;2023-02-15T08:28:52;36.67;;;22.40;;
36747;SDS011;22716;51.556;5.080;2023-02-15T08:31:21;44.33;;;21.70;;
36747;SDS011;22716;51.556;5.080;2023-02-15T08:33:54;39.53;;;22.23;;
36747;SDS011;22716;51.556;5.080;2023-02-15T08:36:24;36.23;;;22.43;;
36747;SDS011;22716;51.556;5.080;2023-02-15T08:38:57;34.60;;;21.30;;
36747;SDS011;22716;51.556;5.080;2023-02-15T08:41:27;34.57;;;22.40;;
36747;SDS011;22716;51.556;5.080;2023-02-15T08:43:58;41.40;;;22.43;;
36747;SDS011;22716;51.556;5.080;2023-02-15T08:46:29;35.60;;;22.40;;
36747;SDS011;22716;51.556;5.080;2023-02-15T08:49:01;36.90;;;21.07;;
36747;SDS011;22716;51.556;5.080;2023-02-15T08:51:31;32.83;;;21.60;;
36747;SDS011;22716;51.556;5.080;2023-02-15T08:54:03;33.27;;;22.47;;
36747;SDS011;22716;51.556;5.080;2023-02-15T08:56:35;39.20;;;23.17;;
36747;SDS011;22716;51.556;5.080;2023-02-15T08:59:05;34.37;;;21.93;;
36747;SDS011;22716;51.556;5.080;2023-02-15T09:01:35;36.03;;;21.87;;
36747;SDS011;22716;51.556;5.080;2023-02-15T09:04:07;37.77;;;22.53;;
36747;SDS011;22716;51.556;5.080;2023-02-15T09:06:39;36.80;;;23.42;;
36747;SDS011;22716;51.556;5.080;2023-02-15T09:09:09;36.00;;;22.00;;
36747;SDS011;22716;51.556;5.080;2023-02-15T09:11:40;33.90;;;21.87;;
36747;SDS011;22716;51.556;5.080;2023-02-15T09:14:11;36.90;;;22.63;;
36747;SDS011;22716;51.556;5.080;2023-02-15T09:16:42;43.33;;;23.43;;
36747;SDS011;22716;51.556;5.080;2023-02-15T09:19:16;41.20;;;25.20;;
36747;SDS011;22716;51.556;5.080;2023-02-15T09:21:46;38.27;;;23.10;;
36747;SDS011;22716;51.556;5.080;2023-02-15T09:24:15;37.60;;;23.57;;
36747;SDS011;22716;51.556;5.080;2023-02-15T09:26:45;36.57;;;22.37;;
36747;SDS011;22716;51.556;5.080;2023-02-15T09:29:15;38.03;;;24.80;;
36747;SDS011;22716;51.556;5.080;2023-02-15T09:31:46;41.07;;;23.23;;
36747;SDS011;22716;51.556;5.080;2023-02-15T09:34:19;37.23;;;24.47;;
36747;SDS011;22716;51.556;5.080;2023-02-15T09:36:50;41.40;;;23.95;;
36747;SDS011;22716;51.556;5.080;2023-02-15T09:39:20;41.77;;;24.67;;
36747;SDS011;22716;51.556;5.080;2023-02-15T09:48:01;35.05;;;23.48;;
36747;SDS011;22716;51.556;5.080;2023-02-15T09:50:43;34.73;;;24.03;;
36747;SDS011;22716;51.556;5.080;2023-02-15T09:53:40;45.23;;;23.33;;
36747;SDS011;22716;51.556;5.080;2023-02-15T09:56:24;37.30;;;23.30;;
36747;SDS011;22716;51.556;5.080;2023-02-15T09:59:04;41.80;;;24.63;;
36747;SDS011;22716;51.556;5.080;2023-02-15T10:01:41;37.63;;;24.47;;
36747;SDS011;22716;51.556;5.080;2023-02-15T10:04:23;35.07;;;23.00;;
36747;SDS011;22716;51.556;5.080;2023-02-15T10:07:08;42.35;;;23.08;;
36747;SDS011;22716;51.556;5.080;2023-02-15T10:09:48;39.20;;;25.83;;
36747;SDS011;22716;51.556;5.080;2023-02-15T10:12:37;41.20;;;24.00;;
36747;SDS011;22716;51.556;5.080;2023-02-15T10:15:22;37.50;;;24.43;;
36747;SDS011;22716;51.556;5.080;2023-02-15T10:18:06;39.00;;;23.60;;
36747;SDS011;22716;51.556;5.080;2023-02-15T10:20:50;33.63;;;22.73;;
36747;SDS011;22716;51.556;5.080;2023-02-15T10:23:32;33.07;;;22.03;;
36747;SDS011;22716;51.556;5.080;2023-02-15T10:26:17;43.50;;;24.67;;
36747;SDS011;22716;51.556;5.080;2023-02-15T10:28:48;35.20;;;23.43;;
36747;SDS011;22716;51.556;5.080;2023-02-15T10:31:22;35.80;;;21.97;;
36747;SDS011;22716;51.556;5.080;2023-02-15T10:33:57;39.38;;;23.92;;
36747;SDS011;22716;51.556;5.080;2023-02-15T10:39:45;31.17;;;20.87;;
36747;SDS011;22716;51.556;5.080;2023-02-15T10:42:23;32.87;;;22.00;;
36747;SDS011;22716;51.556;5.080;2023-02-15T10:45:07;34.67;;;22.57;;
36747;SDS011;22716;51.556;5.080;2023-02-15T10:47:53;38.83;;;22.33;;
36747;SDS011;22716;51.556;5.080;2023-02-15T10:50:39;38.87;;;22.17;;
36747;SDS011;22716;51.556;5.080;2023-02-15T10:53:22;34.70;;;21.83;;
36747;SDS011;22716;51.556;5.080;2023-02-15T10:56:08;39.37;;;22.20;;
36747;SDS011;22716;51.556;5.080;2023-02-15T10:58:55;32.27;;;20.00;;
36747;SDS011;22716;51.556;5.080;2023-02-15T11:01:37;36.73;;;22.00;;
36747;SDS011;22716;51.556;5.080;2023-02-15T11:04:31;36.47;;;20.90;;
36747;SDS011;22716;51.556;5.080;2023-02-15T11:07:12;35.10;;;20.07;;
36747;SDS011;22716;51.556;5.080;2023-02-15T11:09:46;33.83;;;20.00;;
36747;SDS011;22716;51.556;5.080;2023-02-15T11:12:22;36.50;;;21.13;;
36747;SDS011;22716;51.556;5.080;2023-02-15T11:17:25;33.67;;;20.10;;
36747;SDS011;22716;51.556;5.080;2023-02-15T11:20:04;36.10;;;19.97;;
36747;SDS011;22716;51.556;5.080;2023-02-15T11:22:44;31.43;;;18.77;;
36747;SDS011;22716;51.556;5.080;2023-02-15T11:25:28;34.47;;;19.87;;
36747;SDS011;22716;51.556;5.080;2023-02-15T11:28:03;31.10;;;19.23;;
36747;SDS011;22716;51.556;5.080;2023-02-15T11:30:40;34.80;;;20.93;;
36747;SDS011;22716;51.556;5.080;2023-02-15T11:33:14;33.73;;;19.27;;
36747;SDS011;22716;51.556;5.080;2023-02-15T11:35:49;35.80;;;21.47;;
36747;SDS011;22716;51.556;5.080;2023-02-15T11:38:22;33.47;;;20.50;;
36747;SDS011;22716;51.556;5.080;2023-02-15T11:40:54;34.50;;;21.83;;
36747;SDS011;22716;51.556;5.080;2023-02-15T11:43:30;34.20;;;22.17;;
36747;SDS011;22716;51.556;5.080;2023-02-15T11:46:03;39.33;;;20.67;;
36747;SDS011;22716;51.556;5.080;2023-02-15T11:48:33;37.77;;;21.27;;
36747;SDS011;22716;51.556;5.080;2023-02-15T11:51:02;33.63;;;20.60;;
36747;SDS011;22716;51.556;5.080;2023-02-15T11:53:32;33.77;;;21.73;;
36747;SDS011;22716;51.556;5.080;2023-02-15T11:56:08;35.57;;;22.17;;
36747;SDS011;22716;51.556;5.080;2023-02-15T11:58:45;34.77;;;22.43;;
36747;SDS011;22716;51.556;5.080;2023-02-15T12:01:20;34.27;;;19.60;;
36747;SDS011;22716;51.556;5.080;2023-02-15T12:03:56;33.20;;;21.57;;
36747;SDS011;22716;51.556;5.080;2023-02-15T12:06:30;37.42;;;21.15;;
36747;SDS011;22716;51.556;5.080;2023-02-15T12:09:05;35.40;;;20.85;;
36747;SDS011;22716;51.556;5.080;2023-02-15T12:11:42;33.03;;;20.70;;
36747;SDS011;22716;51.556;5.080;2023-02-15T12:14:13;44.20;;;22.63;;
36747;SDS011;22716;51.556;5.080;2023-02-15T12:16:44;34.20;;;19.90;;
36747;SDS011;22716;51.556;5.080;2023-02-15T12:19:23;35.17;;;20.97;;
36747;SDS011;22716;51.556;5.080;2023-02-15T12:21:58;32.57;;;20.90;;
36747;SDS011;22716;51.556;5.080;2023-02-15T12:24:29;38.80;;;22.03;;
36747;SDS011;22716;51.556;5.080;2023-02-15T12:27:02;37.13;;;19.03;;
36747;SDS011;22716;51.556;5.080;2023-02-15T12:29:39;35.20;;;22.30;;
36747;SDS011;22716;51.556;5.080;2023-02-15T12:32:10;39.97;;;21.90;;
36747;SDS011;22716;51.556;5.080;2023-02-15T12:37:15;31.27;;;20.57;;
36747;SDS011;22716;51.556;5.080;2023-02-15T12:39:51;39.25;;;22.27;;
36747;SDS011;22716;51.556;5.080;2023-02-15T12:42:22;33.10;;;20.20;;
36747;SDS011;22716;51.556;5.080;2023-02-15T12:44:59;32.17;;;19.67;;
36747;SDS011;22716;51.556;5.080;2023-02-15T12:47:29;38.17;;;20.63;;
36747;SDS011;22716;51.556;5.080;2023-02-15T12:50:08;33.47;;;20.83;;
36747;SDS011;22716;51.556;5.080;2023-02-15T12:52:46;33.93;;;20.67;;
36747;SDS011;22716;51.556;5.080;2023-02-15T12:55:24;38.47;;;21.27;;
36747;SDS011;22716;51.556;5.080;2023-02-15T12:58:05;36.93;;;20.33;;
36747;SDS011;22716;51.556;5.080;2023-02-15T13:00:37;33.13;;;20.60;;
36747;SDS011;22716;51.556;5.080;2023-02-15T13:03:14;32.40;;;20.17;;
36747;SDS011;22716;51.556;5.080;2023-02-15T13:05:46;34.00;;;21.57;;
36747;SDS011;22716;51.556;5.080;2023-02-15T13:08:19;35.27;;;20.73;;
36747;SDS011;22716;51.556;5.080;2023-02-15T13:10:54;32.83;;;20.33;;
36747;SDS011;22716;51.556;5.080;2023-02-15T13:13:27;32.47;;;20.27;;
36747;SDS011;22716;51.556;5.080;2023-02-15T13:16:01;34.77;;;20.60;;
36747;SDS011;22716;51.556;5.080;2023-02-15T13:18:34;34.30;;;19.63;;
36747;SDS011;22716;51.556;5.080;2023-02-15T13:21:09;35.33;;;20.30;;
36747;SDS011;22716;51.556;5.080;2023-02-15T13:26:13;30.40;;;18.43;;
36747;SDS011;22716;51.556;5.080;2023-02-15T13:28:45;32.10;;;20.47;;
36747;SDS011;22716;51.556;5.080;2023-02-15T13:31:18;30.93;;;19.90;;
36747;SDS011;22716;51.556;5.080;2023-02-15T13:33:49;37.37;;;21.40;;
36747;SDS011;22716;51.556;5.080;2023-02-15T13:36:23;35.73;;;20.83;;
36747;SDS011;22716;51.556;5.080;2023-02-15T13:39:01;36.37;;;22.77;;
36747;SDS011;22716;51.556;5.080;2023-02-15T13:41:43;34.20;;;21.03;;
36747;SDS011;22716;51.556;5.080;2023-02-15T13:44:20;34.20;;;21.67;;
36747;SDS011;22716;51.556;5.080;2023-02-15T13:47:16;31.53;;;20.67;;
36747;SDS011;22716;51.556;5.080;2023-02-15T13:49:54;33.47;;;20.67;;
36747;SDS011;22716;51.556;5.080;2023-02-15T13:52:44;37.10;;;21.47;;
36747;SDS011;22716;51.556;5.080;2023-02-15T13:55:27;36.87;;;21.23;;
36747;SDS011;22716;51.556;5.080;2023-02-15T13:58:13;34.20;;;20.83;;
36747;SDS011;22716;51.556;5.080;2023-02-15T14:00:56;34.27;;;20.10;;
36747;SDS011;22716;51.556;5.080;2023-02-15T14:06:36;33.10;;;20.77;;
36747;SDS011;22716;51.556;5.080;2023-02-15T14:09:18;32.67;;;20.63;;
36747;SDS011;22716;51.556;5.080;2023-02-15T14:12:09;36.97;;;20.67;;
36747;SDS011;22716;51.556;5.080;2023-02-15T14:15:00;37.23;;;21.77;;
36747;SDS011;22716;51.556;5.080;2023-02-15T14:17:57;32.67;;;20.13;;
36747;SDS011;22716;51.556;5.080;2023-02-15T14:20:43;36.13;;;23.27;;
36747;SDS011;22716;51.556;5.080;2023-02-15T14:23:23;36.83;;;20.77;;
36747;SDS011;22716;51.556;5.080;2023-02-15T14:26:02;38.60;;;21.17;;
36747;SDS011;22716;51.556;5.080;2023-02-15T14:28:38;36.63;;;21.80;;
36747;SDS011;22716;51.556;5.080;2023-02-15T14:31:12;32.47;;;21.43;;
36747;SDS011;22716;51.556;5.080;2023-02-15T14:33:47;35.77;;;22.80;;
36747;SDS011;22716;51.556;5.080;2023-02-15T14:36:25;33.93;;;21.43;;
36747;SDS011;22716;51.556;5.080;2023-02-15T14:39:00;38.97;;;23.67;;
36747;SDS011;22716;51.556;5.080;2023-02-15T14:42:02;34.13;;;22.05;;
36747;SDS011;22716;51.556;5.080;2023-02-15T14:44:37;41.33;;;22.90;;
36747;SDS011;22716;51.556;5.080;2023-02-15T14:47:12;36.27;;;22.93;;
36747;SDS011;22716;51.556;5.080;2023-02-15T14:49:48;41.93;;;22.40;;
36747;SDS011;22716;51.556;5.080;2023-02-15T14:52:19;36.40;;;22.30;;
36747;SDS011;22716;51.556;5.080;2023-02-15T14:54:58;36.33;;;22.07;;
36747;SDS011;22716;51.556;5.080;2023-02-15T14:57:36;35.67;;;23.60;;
36747;SDS011;22716;51.556;5.080;2023-02-15T15:03:18;34.83;;;20.57;;
36747;SDS011;22716;51.556;5.080;2023-02-15T15:05:50;33.43;;;21.53;;
36747;SDS011;22716;51.556;5.080;2023-02-15T15:08:25;40.17;;;22.07;;
36747;SDS011;22716;51.556;5.080;2023-02-15T15:10:57;36.93;;;22.33;;
36747;SDS011;22716;51.556;5.080;2023-02-15T15:14:03;37.63;;;22.93;;
36747;SDS011;22716;51.556;5.080;2023-02-15T15:22:33;37.03;;;20.42;;
36747;SDS011;22716;51.556;5.080;2023-02-15T15:25:08;35.03;;;20.57;;
36747;SDS011;22716;51.556;5.080;2023-02-15T15:27:40;39.60;;;21.93;;
36747;SDS011;22716;51.556;5.080;2023-02-15T15:33:13;34.43;;;20.67;;
36747;SDS011;22716;51.556;5.080;2023-02-15T15:36:05;32.07;;;21.00;;
36747;SDS011;22716;51.556;5.080;2023-02-15T15:38:47;37.73;;;21.33;;